createdAt,value
2022-08-25T00:01:50.395Z,14.75
2022-08-25T00:04:40.481Z,13.20
2022-08-25T00:07:31.339Z,14.85
2022-08-25T00:10:19.227Z,14.02
2022-08-25T00:13:08.246Z,16.73
2022-08-25T00:15:56.116Z,16.75
2022-08-25T00:18:46.258Z,17.33
2022-08-25T00:21:35.483Z,17.00
2022-08-25T00:24:24.541Z,15.82
2022-08-25T00:27:12.795Z,16.73
2022-08-25T00:30:00.949Z,14.57
2022-08-25T00:32:55.240Z,13.73
2022-08-25T00:35:46.317Z,16.13
2022-08-25T00:38:35.423Z,16.05
2022-08-25T00:41:26.488Z,16.05
2022-08-25T00:44:18.938Z,18.60
2022-08-25T00:47:09.160Z,15.98
2022-08-25T00:50:01.448Z,15.10
2022-08-25T00:52:55.177Z,16.40
2022-08-25T00:55:44.551Z,15.52
2022-08-25T00:58:33.792Z,16.45
2022-08-25T01:01:21.634Z,13.90
2022-08-25T01:04:09.965Z,13.55
2022-08-25T01:06:59.346Z,14.95
2022-08-25T01:09:48.842Z,14.23
2022-08-25T01:12:38.736Z,14.60
2022-08-25T01:15:26.249Z,16.52
2022-08-25T01:18:14.243Z,17.27
2022-08-25T01:21:03.448Z,13.93
2022-08-25T01:23:53.090Z,13.63
2022-08-25T01:26:41.228Z,14.57
2022-08-25T01:29:30.905Z,17.30
2022-08-25T01:32:18.594Z,18.27
2022-08-25T01:35:07.114Z,16.75
2022-08-25T01:37:56.228Z,14.73
2022-08-25T01:40:44.763Z,16.25
2022-08-25T01:43:38.106Z,15.55
2022-08-25T01:46:25.922Z,17.15
2022-08-25T01:49:13.886Z,16.85
2022-08-25T01:52:06.586Z,15.40
2022-08-25T01:54:55.920Z,18.33
2022-08-25T01:57:43.862Z,25.77
2022-08-25T02:00:31.826Z,28.48
2022-08-25T02:03:20.089Z,24.88
2022-08-25T02:06:08.551Z,19.38
2022-08-25T02:09:00.743Z,19.80
2022-08-25T02:11:50.213Z,22.73
2022-08-25T02:14:38.771Z,21.70
2022-08-25T02:17:26.684Z,18.98
2022-08-25T02:20:14.385Z,17.98
2022-08-25T02:23:02.024Z,17.27
2022-08-25T02:25:50.141Z,19.98
2022-08-25T02:28:39.885Z,19.02
2022-08-25T02:31:28.141Z,20.50
2022-08-25T02:34:16.375Z,17.83
2022-08-25T02:37:04.030Z,17.42
2022-08-25T02:39:51.880Z,17.60
2022-08-25T02:42:39.972Z,15.85
2022-08-25T02:45:31.888Z,15.35
2022-08-25T02:48:19.858Z,15.93
2022-08-25T02:51:09.368Z,16.55
2022-08-25T02:53:57.597Z,17.63
2022-08-25T02:56:45.459Z,15.07
2022-08-25T02:59:33.255Z,15.88
2022-08-25T03:02:22.512Z,15.02
2022-08-25T03:05:11.430Z,13.32
2022-08-25T03:08:00.104Z,12.40
2022-08-25T03:10:48.396Z,13.20
2022-08-25T03:13:40.431Z,13.95
2022-08-25T03:16:28.299Z,15.43
2022-08-25T03:19:18.207Z,15.05
2022-08-25T03:22:06.402Z,14.63
2022-08-25T03:25:15.587Z,15.10
2022-08-25T03:28:02.839Z,15.23
2022-08-25T03:30:55.867Z,13.50
2022-08-25T03:33:44.336Z,14.55
2022-08-25T03:36:33.495Z,17.95
2022-08-25T03:39:22.835Z,14.93
2022-08-25T03:42:12.702Z,14.98
2022-08-25T03:45:00.488Z,15.63
2022-08-25T03:47:50.334Z,14.75
2022-08-25T03:50:38.281Z,15.13
2022-08-25T03:53:27.958Z,15.85
2022-08-25T03:56:15.799Z,16.10
2022-08-25T03:59:03.913Z,17.90
2022-08-25T04:01:55.190Z,18.60
2022-08-25T04:04:43.374Z,16.63
2022-08-25T04:07:31.524Z,16.48
2022-08-25T04:10:21.112Z,18.00
2022-08-25T04:13:09.047Z,17.17
2022-08-25T04:15:56.701Z,18.23
2022-08-25T04:18:45.042Z,17.88
2022-08-25T04:21:33.176Z,24.58
2022-08-25T04:24:22.000Z,25.88
2022-08-25T04:27:11.321Z,22.27
2022-08-25T04:29:59.057Z,20.42
2022-08-25T04:32:48.394Z,20.33
2022-08-25T04:35:36.410Z,25.35
2022-08-25T04:38:24.242Z,24.25
2022-08-25T04:41:14.278Z,22.90
2022-08-25T04:44:03.942Z,22.30
2022-08-25T04:46:51.666Z,21.98
2022-08-25T04:49:39.817Z,21.88
2022-08-25T04:52:27.802Z,20.50
2022-08-25T04:55:15.754Z,27.17
2022-08-25T04:58:03.276Z,22.13
2022-08-25T05:00:52.533Z,22.15
2022-08-25T05:03:40.478Z,23.00
2022-08-25T05:06:28.879Z,25.55
2022-08-25T05:09:16.463Z,23.55
2022-08-25T05:12:08.123Z,25.58
2022-08-25T05:15:18.236Z,25.13
2022-08-25T05:18:07.900Z,23.33
2022-08-25T05:20:57.483Z,23.90
2022-08-25T05:23:46.587Z,24.02
2022-08-25T05:26:36.646Z,22.58
2022-08-25T05:29:24.283Z,22.45
2022-08-25T05:32:12.133Z,23.52
2022-08-25T05:35:01.249Z,24.73
2022-08-25T05:37:49.133Z,25.23
2022-08-25T05:40:36.987Z,28.02
2022-08-25T05:43:24.794Z,26.85
2022-08-25T05:46:14.106Z,22.80
2022-08-25T05:49:02.041Z,21.98
2022-08-25T05:51:51.430Z,23.98
2022-08-25T05:54:40.130Z,23.83
2022-08-25T05:57:27.642Z,21.05
2022-08-25T06:00:15.975Z,24.98
2022-08-25T06:03:02.642Z,25.50
2022-08-25T06:05:50.410Z,27.35
2022-08-25T06:08:41.695Z,30.02
2022-08-25T06:11:29.287Z,28.42
2022-08-25T06:14:17.778Z,32.13
2022-08-25T06:17:05.870Z,33.58
2022-08-25T06:19:54.987Z,33.90
2022-08-25T06:22:43.272Z,33.65
2022-08-25T06:25:35.405Z,28.42
2022-08-25T06:28:23.302Z,29.77
2022-08-25T06:31:11.499Z,30.58
2022-08-25T06:33:59.370Z,32.70
2022-08-25T06:36:48.971Z,36.35
2022-08-25T06:39:37.091Z,37.50
2022-08-25T06:42:26.678Z,30.90
2022-08-25T06:45:14.405Z,29.83
2022-08-25T06:48:02.614Z,31.52
2022-08-25T06:50:50.397Z,28.88
2022-08-25T06:53:38.142Z,25.10
2022-08-25T06:56:26.688Z,29.08
2022-08-25T06:59:17.473Z,25.17
2022-08-25T07:02:06.991Z,28.15
2022-08-25T07:04:54.737Z,28.30
2022-08-25T07:07:44.414Z,28.77
2022-08-25T07:10:32.191Z,26.52
2022-08-25T07:13:19.897Z,27.55
2022-08-25T07:16:11.314Z,23.98
2022-08-25T07:19:00.284Z,24.98
2022-08-25T07:21:50.612Z,22.50
2022-08-25T07:24:38.641Z,22.63
2022-08-25T07:27:26.597Z,21.20
2022-08-25T07:30:14.709Z,22.08
2022-08-25T07:33:06.813Z,21.02
2022-08-25T07:35:54.297Z,19.63
2022-08-25T07:38:42.036Z,21.80
2022-08-25T07:41:30.834Z,19.58
2022-08-25T07:44:21.447Z,17.95
2022-08-25T07:47:12.160Z,17.10
2022-08-25T07:50:01.579Z,15.25
2022-08-25T07:52:49.763Z,15.48
2022-08-25T07:55:42.124Z,15.20
2022-08-25T07:58:32.735Z,14.40
2022-08-25T08:01:25.642Z,15.35
2022-08-25T08:04:13.484Z,14.20
2022-08-25T08:07:11.946Z,12.38
2022-08-25T08:10:28.187Z,12.23
2022-08-25T08:13:08.145Z,10.35
2022-08-25T08:15:56.160Z,12.80
2022-08-25T08:18:44.240Z,12.95
2022-08-25T08:21:34.332Z,11.63
2022-08-25T08:24:40.613Z,12.10
2022-08-25T08:27:30.746Z,12.02
2022-08-25T08:30:18.679Z,9.82
2022-08-25T08:33:10.150Z,10.10
2022-08-25T08:36:05.123Z,10.60
2022-08-25T08:38:53.993Z,10.40
2022-08-25T08:42:16.800Z,10.93
2022-08-25T08:45:21.280Z,10.38
2022-08-25T08:48:28.246Z,8.68
2022-08-25T08:51:23.577Z,8.68
2022-08-25T08:54:18.619Z,8.95
2022-08-25T08:57:13.826Z,7.93
2022-08-25T09:00:04.784Z,8.07
2022-08-25T09:02:58.571Z,8.85
2022-08-25T09:05:50.322Z,8.43
2022-08-25T09:08:39.105Z,8.27
2022-08-25T09:11:46.033Z,8.60
2022-08-25T09:14:53.822Z,8.57
2022-08-25T09:18:08.456Z,8.52
2022-08-25T09:21:09.604Z,8.25
2022-08-25T09:24:11.845Z,7.82
2022-08-25T09:27:10.894Z,8.68
2022-08-25T09:30:05.193Z,8.07
2022-08-25T09:33:02.272Z,8.25
2022-08-25T09:35:51.901Z,7.47
2022-08-25T09:38:42.094Z,6.80
2022-08-25T09:41:51.305Z,7.97
2022-08-25T09:44:43.637Z,7.57
2022-08-25T09:47:33.121Z,6.97
2022-08-25T09:50:22.356Z,7.20
2022-08-25T09:53:17.601Z,6.63
2022-08-25T09:56:11.359Z,7.25
2022-08-25T09:59:21.339Z,7.70
2022-08-25T10:02:25.913Z,7.57
2022-08-25T10:05:27.773Z,5.97
2022-08-25T10:08:27.173Z,6.85
2022-08-25T10:11:31.724Z,6.75
2022-08-25T10:14:27.585Z,6.70
2022-08-25T10:17:27.500Z,6.82
2022-08-25T10:20:21.461Z,7.00
2022-08-25T10:23:14.935Z,6.97
2022-08-25T10:26:10.005Z,6.72
2022-08-25T10:29:13.269Z,6.63
2022-08-25T10:32:10.209Z,7.32
2022-08-25T10:35:04.771Z,6.15
2022-08-25T10:38:11.022Z,6.65
2022-08-25T10:41:10.069Z,7.03
2022-08-25T10:44:29.127Z,6.93
2022-08-25T10:47:42.022Z,7.07
2022-08-25T10:50:36.275Z,7.60
2022-08-25T10:53:35.759Z,6.75
2022-08-25T10:56:30.297Z,7.47
2022-08-25T10:59:31.678Z,7.80
2022-08-25T11:03:05.262Z,7.53
2022-08-25T11:05:56.569Z,7.28
2022-08-25T11:08:49.090Z,7.43
2022-08-25T11:11:43.400Z,6.97
2022-08-25T11:14:36.424Z,7.15
2022-08-25T11:17:27.236Z,6.90
2022-08-25T11:20:19.923Z,6.90
2022-08-25T11:23:21.328Z,7.25
2022-08-25T11:26:13.627Z,6.80
2022-08-25T11:29:12.002Z,6.85
2022-08-25T11:32:01.686Z,6.60
2022-08-25T11:34:49.646Z,7.15
2022-08-25T11:37:45.840Z,6.43
2022-08-25T11:40:55.672Z,7.22
2022-08-25T11:44:04.575Z,7.03
2022-08-25T11:47:21.163Z,7.10
2022-08-25T11:50:25.936Z,5.93
2022-08-25T11:53:26.587Z,6.22
2022-08-25T11:56:34.696Z,6.32
2022-08-25T12:00:05.852Z,6.15
2022-08-25T12:02:58.456Z,6.43
2022-08-25T12:06:13.695Z,6.43
2022-08-25T12:09:21.129Z,6.95
2022-08-25T12:12:31.299Z,6.88
2022-08-25T12:15:23.656Z,5.82
2022-08-25T12:18:16.429Z,5.97
2022-08-25T12:21:16.237Z,6.05
2022-08-25T12:24:12.126Z,7.07
2022-08-25T12:27:06.212Z,6.47
2022-08-25T12:30:01.073Z,6.55
2022-08-25T12:33:02.001Z,6.43
2022-08-25T12:35:58.520Z,5.53
2022-08-25T12:38:52.041Z,6.68
2022-08-25T12:41:54.974Z,6.00
2022-08-25T12:44:47.231Z,5.85
2022-08-25T12:47:35.652Z,5.88
2022-08-25T12:50:29.512Z,6.80
2022-08-25T12:53:24.691Z,6.18
2022-08-25T12:56:29.076Z,5.90
2022-08-25T12:59:20.220Z,6.57
2022-08-25T13:02:51.676Z,5.95
2022-08-25T13:06:00.314Z,6.75
2022-08-25T13:09:34.903Z,7.38
2022-08-25T13:12:28.705Z,7.35
2022-08-25T13:15:28.964Z,6.38
2022-08-25T13:18:22.087Z,6.93
2022-08-25T13:21:16.132Z,6.05
2022-08-25T13:24:10.504Z,7.10
2022-08-25T13:27:01.175Z,6.13
2022-08-25T13:29:53.375Z,5.82
2022-08-25T13:32:41.596Z,5.95
2022-08-25T13:35:32.990Z,6.20
2022-08-25T13:38:20.170Z,5.90
2022-08-25T13:41:10.602Z,6.45
2022-08-25T13:44:01.057Z,6.30
2022-08-25T13:47:05.888Z,5.60
2022-08-25T13:49:57.672Z,6.72
2022-08-25T13:52:50.423Z,7.10
2022-08-25T13:55:51.381Z,6.10
2022-08-25T13:58:46.412Z,5.97
2022-08-25T14:01:49.276Z,6.72
2022-08-25T14:04:52.862Z,7.20
2022-08-25T14:07:46.499Z,6.22
2022-08-25T14:10:40.881Z,6.07
2022-08-25T14:13:33.142Z,6.72
2022-08-25T14:16:25.528Z,6.18
2022-08-25T14:19:20.269Z,6.65
2022-08-25T14:22:08.282Z,6.38
2022-08-25T14:24:56.776Z,7.70
2022-08-25T14:28:06.480Z,7.47
2022-08-25T14:30:57.310Z,6.80
2022-08-25T14:33:53.880Z,7.53
2022-08-25T14:36:42.369Z,6.20
2022-08-25T14:39:32.673Z,5.78
2022-08-25T14:42:20.492Z,7.07
2022-08-25T14:45:12.789Z,6.55
2022-08-25T14:48:04.517Z,6.68
2022-08-25T14:51:01.584Z,6.95
2022-08-25T14:53:50.022Z,6.28
2022-08-25T14:56:39.030Z,6.97
2022-08-25T14:59:31.641Z,6.82
2022-08-25T15:02:21.199Z,7.10
2022-08-25T15:05:12.576Z,6.88
2022-08-25T15:08:19.672Z,5.95
2022-08-25T15:11:09.329Z,6.43
2022-08-25T15:13:58.423Z,6.65
2022-08-25T15:16:52.122Z,7.47
2022-08-25T15:19:40.165Z,6.85
2022-08-25T15:22:28.365Z,6.45
2022-08-25T15:25:18.349Z,6.97
2022-08-25T15:28:09.781Z,6.45
2022-08-25T15:30:57.867Z,6.68
2022-08-25T15:33:46.579Z,6.88
2022-08-25T15:36:36.225Z,6.70
2022-08-25T15:39:25.991Z,6.80
2022-08-25T15:42:16.477Z,6.88
2022-08-25T15:45:05.234Z,6.03
2022-08-25T15:47:53.888Z,6.68
2022-08-25T15:50:41.820Z,6.60
2022-08-25T15:53:30.313Z,6.97
2022-08-25T15:56:26.904Z,7.18
2022-08-25T15:59:16.590Z,6.90
2022-08-25T16:02:04.910Z,6.70
2022-08-25T16:05:03.152Z,6.50
2022-08-25T16:07:52.717Z,7.03
2022-08-25T16:10:43.001Z,6.30
2022-08-25T16:13:30.944Z,6.97
2022-08-25T16:16:22.579Z,6.82
2022-08-25T16:19:11.513Z,6.65
2022-08-25T16:22:00.104Z,7.63
2022-08-25T16:24:48.086Z,7.10
2022-08-25T16:27:38.695Z,5.88
2022-08-25T16:30:26.995Z,6.85
2022-08-25T16:33:17.115Z,6.90
2022-08-25T16:36:07.120Z,7.05
2022-08-25T16:38:55.188Z,7.78
2022-08-25T16:41:43.379Z,7.43
2022-08-25T16:44:31.020Z,7.32
2022-08-25T16:47:20.343Z,7.20
2022-08-25T16:50:14.374Z,7.65
2022-08-25T16:53:19.682Z,7.55
2022-08-25T16:56:11.723Z,7.00
2022-08-25T16:59:01.781Z,7.18
2022-08-25T17:01:49.608Z,6.85
2022-08-25T17:04:38.607Z,6.53
2022-08-25T17:07:27.800Z,7.43
2022-08-25T17:10:15.555Z,6.68
2022-08-25T17:13:05.623Z,7.03
2022-08-25T17:15:53.531Z,6.65
2022-08-25T17:18:42.099Z,6.18
2022-08-25T17:21:34.124Z,6.57
2022-08-25T17:24:29.398Z,6.10
2022-08-25T17:27:21.123Z,7.38
2022-08-25T17:30:10.367Z,6.97
2022-08-25T17:32:58.425Z,6.78
2022-08-25T17:35:50.862Z,6.82
2022-08-25T17:38:41.831Z,6.15
2022-08-25T17:41:31.265Z,6.60
2022-08-25T17:44:19.409Z,6.68
2022-08-25T17:47:07.668Z,7.47
2022-08-25T17:49:56.059Z,7.57
2022-08-25T17:52:43.948Z,6.53
2022-08-25T17:55:32.321Z,6.25
2022-08-25T17:58:22.497Z,7.53
2022-08-25T18:01:17.048Z,6.15
2022-08-25T18:04:06.377Z,6.88
2022-08-25T18:07:06.001Z,6.65
2022-08-25T18:09:54.183Z,6.55
2022-08-25T18:12:43.619Z,7.38
2022-08-25T18:15:34.614Z,6.57
2022-08-25T18:18:24.221Z,6.55
2022-08-25T18:21:14.930Z,8.30
2022-08-25T18:24:03.394Z,6.90
2022-08-25T18:26:51.390Z,6.65
2022-08-25T18:29:40.777Z,7.70
2022-08-25T18:32:30.430Z,7.80
2022-08-25T18:35:21.661Z,7.20
2022-08-25T18:38:32.081Z,7.10
2022-08-25T18:41:20.266Z,7.88
2022-08-25T18:44:08.603Z,7.20
2022-08-25T18:46:58.622Z,6.82
2022-08-25T18:49:47.721Z,6.35
2022-08-25T18:52:35.853Z,7.10
2022-08-25T18:55:24.149Z,6.50
2022-08-25T18:58:12.323Z,7.93
2022-08-25T19:01:00.930Z,6.95
2022-08-25T19:03:48.496Z,6.88
2022-08-25T19:06:38.223Z,6.65
2022-08-25T19:09:25.760Z,7.85
2022-08-25T19:12:22.495Z,7.03
2022-08-25T19:15:11.549Z,6.80
2022-08-25T19:18:00.395Z,8.70
2022-08-25T19:20:48.077Z,8.20
2022-08-25T19:23:38.217Z,7.30
2022-08-25T19:26:27.938Z,7.47
2022-08-25T19:29:18.498Z,8.70
2022-08-25T19:32:06.928Z,7.45
2022-08-25T19:34:55.510Z,8.00
2022-08-25T19:37:43.295Z,7.90
2022-08-25T19:40:33.304Z,8.30
2022-08-25T19:43:22.656Z,8.60
2022-08-25T19:46:11.129Z,8.90
2022-08-25T19:49:03.717Z,8.05
2022-08-25T19:51:56.843Z,7.78
2022-08-25T19:54:47.030Z,8.85
2022-08-25T19:57:42.647Z,7.57
2022-08-25T20:00:35.876Z,7.85
2022-08-25T20:03:25.182Z,8.70
2022-08-25T20:06:16.001Z,8.38
2022-08-25T20:09:05.154Z,9.25
2022-08-25T20:11:53.156Z,9.73
2022-08-25T20:14:42.514Z,10.57
2022-08-25T20:17:33.686Z,9.68
2022-08-25T20:20:22.856Z,10.30
2022-08-25T20:23:28.375Z,11.38
2022-08-25T20:26:17.001Z,10.15
2022-08-25T20:29:06.173Z,10.43
2022-08-25T20:31:55.061Z,11.27
2022-08-25T20:37:37.456Z,10.02
2022-08-25T20:40:28.492Z,10.40
2022-08-25T20:43:16.463Z,11.20
2022-08-25T20:46:05.370Z,10.95
2022-08-25T20:48:54.701Z,10.93
2022-08-25T20:51:42.362Z,11.00
2022-08-25T20:54:30.778Z,10.82
2022-08-25T20:57:25.684Z,12.32
2022-08-25T21:00:15.022Z,10.90
2022-08-25T21:03:03.504Z,12.93
2022-08-25T21:05:53.508Z,12.02
2022-08-25T21:08:46.549Z,14.73
2022-08-25T21:11:34.920Z,13.43
2022-08-25T21:14:24.290Z,13.35
2022-08-25T21:17:14.046Z,12.95
2022-08-25T21:20:01.590Z,12.75
2022-08-25T21:22:51.948Z,13.60
2022-08-25T21:25:42.217Z,13.07
2022-08-25T21:28:30.254Z,13.27
2022-08-25T21:31:20.658Z,13.18
2022-08-25T21:34:08.272Z,13.55
2022-08-25T21:36:58.083Z,13.75
2022-08-25T21:39:47.583Z,14.73
2022-08-25T21:42:35.468Z,14.57
2022-08-25T21:45:23.146Z,14.23
2022-08-25T21:48:11.508Z,13.90
2022-08-25T21:51:06.366Z,14.40
2022-08-25T21:54:08.908Z,15.02
2022-08-25T21:57:00.934Z,13.63
2022-08-25T21:59:48.792Z,14.40
2022-08-25T22:02:36.710Z,15.27
2022-08-25T22:05:24.482Z,14.93
2022-08-25T22:08:12.210Z,14.63
2022-08-25T22:11:00.411Z,16.73
2022-08-25T22:13:50.428Z,14.50
2022-08-25T22:16:38.914Z,14.75
2022-08-25T22:19:26.779Z,13.80
2022-08-25T22:22:15.843Z,14.32
2022-08-25T22:25:08.954Z,15.32
2022-08-25T22:27:57.287Z,15.93
2022-08-25T22:30:46.937Z,15.70
2022-08-25T22:33:36.322Z,15.30
2022-08-25T22:36:30.752Z,13.80
2022-08-25T22:39:18.390Z,13.98
2022-08-25T22:42:08.900Z,14.68
2022-08-25T22:44:57.127Z,14.25
2022-08-25T22:47:46.218Z,14.68
2022-08-25T22:50:36.132Z,14.35
2022-08-25T22:53:24.326Z,13.60
2022-08-25T22:56:30.878Z,14.10
2022-08-25T22:59:19.317Z,13.60
2022-08-25T23:02:10.241Z,12.52
2022-08-25T23:05:00.857Z,11.27
2022-08-25T23:07:49.733Z,13.75
2022-08-25T23:10:37.755Z,15.25
2022-08-25T23:13:34.403Z,11.95
2022-08-25T23:16:22.442Z,12.55
2022-08-25T23:19:11.318Z,12.25
2022-08-25T23:22:12.739Z,12.70
2022-08-25T23:25:04.059Z,12.15
2022-08-25T23:27:52.202Z,12.30
2022-08-25T23:30:44.768Z,12.93
2022-08-25T23:33:32.668Z,11.52
2022-08-25T23:36:21.867Z,11.45
2022-08-25T23:39:11.290Z,14.18
2022-08-25T23:41:58.826Z,13.13
2022-08-25T23:44:47.947Z,11.32
2022-08-25T23:47:35.570Z,11.23
2022-08-25T23:50:24.102Z,11.18
2022-08-25T23:53:15.780Z,10.73
2022-08-25T23:56:06.537Z,11.65
2022-08-25T23:58:54.321Z,11.57
